Time;durP1;ratioP1;P1;durP2;ratioP2;P2;SDS_P1;SDS_P2;PMS_P1;PMS_P2;Temp;Humidity;BMP_temperature;BMP_pressure;BME280_temperature;BME280_humidity;BME280_pressure;Samples;Min_cycle;Max_cycle;Signal;HPM_P1;HPM_P2
2023/06/22 00:01:50;;;;;;;1999.90;999.90;;;19.60;99.90;;;;;;5076490;28;20036;-76
2023/06/22 00:04:15;;;;;;;1999.90;999.90;;;19.60;99.90;;;;;;5075286;28;20029;-75
2023/06/22 00:06:41;;;;;;;1999.90;999.90;;;19.60;99.90;;;;;;5076903;28;20051;-75
2023/06/22 00:09:10;;;;;;;1999.90;999.90;;;19.60;99.90;;;;;;5076648;28;20037;-75
2023/06/22 00:11:36;;;;;;;1999.90;999.90;;;19.60;99.90;;;;;;5076147;28;20064;-76
2023/06/22 00:14:02;;;;;;;1999.90;999.90;;;19.50;99.90;;;;;;5076624;28;20501;-75
2023/06/22 00:16:28;;;;;;;1999.90;999.90;;;19.40;99.90;;;;;;5076574;28;20048;-75
2023/06/22 00:18:53;;;;;;;1999.90;999.90;;;19.40;99.90;;;;;;5076033;28;20039;-75
2023/06/22 00:21:22;;;;;;;1999.90;999.90;;;19.30;99.90;;;;;;5076058;28;20029;-75
2023/06/22 00:23:47;;;;;;;1999.90;999.90;;;19.40;99.90;;;;;;5076295;28;20028;-75
2023/06/22 00:26:13;;;;;;;1999.90;999.90;;;19.40;99.90;;;;;;5076539;28;20025;-75
2023/06/22 00:28:39;;;;;;;1999.90;999.90;;;19.40;99.90;;;;;;5076288;28;20037;-75
2023/06/22 00:31:05;;;;;;;1999.90;999.90;;;19.30;99.90;;;;;;5074423;28;20090;-76
2023/06/22 00:33:31;;;;;;;1999.90;999.90;;;19.30;99.90;;;;;;5074904;28;20470;-75
2023/06/22 00:35:57;;;;;;;1999.90;999.90;;;19.30;99.90;;;;;;5076396;28;20028;-75
2023/06/22 00:38:22;;;;;;;1999.90;999.90;;;19.30;99.90;;;;;;5075911;28;20039;-76
2023/06/22 00:40:48;;;;;;;1999.90;999.90;;;19.20;99.90;;;;;;5076015;28;20045;-76
2023/06/22 00:43:14;;;;;;;1999.90;999.90;;;19.20;99.90;;;;;;5075868;28;20041;-75
2023/06/22 00:45:39;;;;;;;1999.90;999.90;;;19.10;99.90;;;;;;5076054;28;20475;-75
2023/06/22 00:48:06;;;;;;;1999.90;999.90;;;19.10;99.90;;;;;;5075808;28;20041;-75
2023/06/22 00:50:35;;;;;;;1999.90;999.90;;;19.10;99.90;;;;;;5075031;28;20044;-75
2023/06/22 00:53:10;;;;;;;1999.90;999.90;;;19.00;99.90;;;;;;5075739;28;20029;-75
2023/06/22 00:55:38;;;;;;;1999.90;999.90;;;19.00;99.90;;;;;;5076509;28;20059;-75
2023/06/22 00:58:07;;;;;;;1999.90;999.90;;;18.90;99.90;;;;;;5075580;28;20037;-76
2023/06/22 01:00:33;;;;;;;1999.90;999.90;;;18.90;99.90;;;;;;5075595;28;20056;-76
2023/06/22 01:02:59;;;;;;;1999.90;999.90;;;18.80;99.90;;;;;;5075671;28;20056;-76
2023/06/22 01:05:24;;;;;;;1999.90;999.90;;;18.80;99.90;;;;;;5075327;28;20041;-75
2023/06/22 01:08:16;;;;;;;1999.90;999.90;;;18.90;99.90;;;;;;5074510;28;20032;-75
2023/06/22 01:10:54;;;;;;;1999.90;999.90;;;18.90;99.90;;;;;;5074249;28;20037;-75
2023/06/22 01:13:20;;;;;;;1999.90;999.90;;;19.00;99.90;;;;;;5072664;28;20510;-75
2023/06/22 01:15:51;;;;;;;1999.90;999.90;;;19.20;99.90;;;;;;5074317;28;20041;-75
2023/06/22 01:18:18;;;;;;;1999.90;999.90;;;19.20;99.90;;;;;;5074103;28;20139;-75
2023/06/22 01:20:44;;;;;;;1999.90;999.90;;;19.30;99.90;;;;;;5072609;28;20843;-75
2023/06/22 01:23:42;;;;;;;1999.90;999.90;;;19.50;99.90;;;;;;5072255;28;20039;-75
2023/06/22 01:26:32;;;;;;;1999.90;999.90;;;19.50;99.90;;;;;;5071925;28;20044;-75
2023/06/22 01:28:59;;;;;;;1999.90;999.90;;;19.40;99.90;;;;;;5073606;28;20039;-75
2023/06/22 01:31:29;;;;;;;1999.90;999.90;;;19.40;99.90;;;;;;5073555;28;20032;-75
2023/06/22 01:33:59;;;;;;;1999.90;999.90;;;19.40;99.90;;;;;;5072482;28;20033;-76
2023/06/22 01:36:26;;;;;;;1999.90;999.90;;;19.40;99.90;;;;;;5073737;28;20511;-75
2023/06/22 01:38:52;;;;;;;1999.90;999.90;;;19.30;99.90;;;;;;5073593;28;20060;-76
2023/06/22 01:41:20;;;;;;;1999.90;999.90;;;19.30;99.90;;;;;;5073660;28;20041;-76
2023/06/22 01:43:46;;;;;;;1999.90;999.90;;;19.20;99.90;;;;;;5073506;28;20059;-76
2023/06/22 01:46:14;;;;;;;1999.90;999.90;;;19.20;99.90;;;;;;5072238;28;20037;-76
2023/06/22 01:48:39;;;;;;;1999.90;999.90;;;19.10;99.90;;;;;;5072002;28;20041;-76
2023/06/22 01:51:05;;;;;;;1999.90;999.90;;;19.10;99.90;;;;;;5073343;28;20040;-75
2023/06/22 01:53:31;;;;;;;1999.90;999.90;;;19.10;99.90;;;;;;5073752;28;20393;-75
2023/06/22 01:55:57;;;;;;;1999.90;999.90;;;19.00;99.90;;;;;;5071815;28;20480;-76
2023/06/22 01:58:27;;;;;;;1999.90;999.90;;;19.00;99.90;;;;;;5073352;28;20037;-75
2023/06/22 02:01:09;;;;;;;1999.90;999.90;;;19.00;99.90;;;;;;5071812;28;20037;-75
2023/06/22 02:03:47;;;;;;;1999.90;999.90;;;19.00;99.90;;;;;;5073444;28;20033;-75
2023/06/22 02:06:19;;;;;;;1999.90;999.90;;;19.00;99.90;;;;;;5072247;28;20036;-76
2023/06/22 02:08:51;;;;;;;1999.90;999.90;;;19.10;99.90;;;;;;5037319;28;1042668;-75
2023/06/22 02:11:18;;;;;;;1999.90;999.90;;;19.10;99.90;;;;;;5072889;28;20067;-76
2023/06/22 02:13:45;;;;;;;1999.90;999.90;;;19.20;99.90;;;;;;5074815;28;20454;-76
2023/06/22 02:16:12;;;;;;;1999.90;999.90;;;19.20;99.90;;;;;;5074638;28;20033;-76
2023/06/22 02:18:40;;;;;;;1999.90;999.90;;;19.20;99.90;;;;;;5074554;28;20076;-76
2023/06/22 02:21:05;;;;;;;1999.90;999.90;;;19.10;99.90;;;;;;5072946;28;20067;-76
2023/06/22 02:23:34;;;;;;;1999.90;999.90;;;19.10;99.90;;;;;;5074730;28;20129;-75
2023/06/22 02:26:00;;;;;;;1999.90;999.90;;;19.20;99.90;;;;;;5073170;28;20561;-75
2023/06/22 02:28:26;;;;;;;1999.90;999.90;;;19.10;99.90;;;;;;5074163;28;20087;-76
2023/06/22 02:30:51;;;;;;;1999.90;999.90;;;19.10;99.90;;;;;;5074302;28;20037;-76
2023/06/22 02:33:16;;;;;;;1999.90;999.90;;;19.10;99.90;;;;;;5074374;28;20029;-75
2023/06/22 02:35:45;;;;;;;1999.90;999.90;;;19.20;99.90;;;;;;5073934;28;20052;-76
2023/06/22 02:38:11;;;;;;;1999.90;999.90;;;19.20;99.90;;;;;;5074242;28;20029;-76
2023/06/22 02:40:36;;;;;;;1999.90;999.90;;;19.20;99.90;;;;;;5074336;28;20029;-75
2023/06/22 02:43:02;;;;;;;1999.90;999.90;;;19.20;99.90;;;;;;5072453;28;20391;-76
2023/06/22 02:45:28;;;;;;;1999.90;999.90;;;19.10;99.90;;;;;;5074297;28;20037;-76
2023/06/22 02:47:54;;;;;;;1999.90;999.90;;;19.10;99.90;;;;;;5074016;28;20036;-75
2023/06/22 02:50:20;;;;;;;1999.90;999.90;;;19.00;99.90;;;;;;5073980;28;20564;-76
2023/06/22 02:52:45;;;;;;;1999.90;999.90;;;19.00;99.90;;;;;;5072391;28;20087;-75
2023/06/22 02:55:11;;;;;;;1999.90;999.90;;;18.90;99.90;;;;;;5074026;28;20104;-76
2023/06/22 02:57:36;;;;;;;1999.90;999.90;;;18.90;99.90;;;;;;5073779;28;20409;-75
2023/06/22 03:00:16;;;;;;;1999.90;999.90;;;18.90;99.90;;;;;;5074256;28;20037;-75
2023/06/22 03:02:42;;;;;;;1999.90;999.90;;;18.90;99.90;;;;;;5074001;28;20102;-76
2023/06/22 03:05:09;;;;;;;1999.90;999.90;;;18.80;99.90;;;;;;5074051;28;20494;-76
2023/06/22 03:07:36;;;;;;;1999.90;999.90;;;18.80;99.90;;;;;;5073200;28;20497;-76
2023/06/22 03:10:02;;;;;;;1999.90;999.90;;;18.80;99.90;;;;;;5074046;28;20031;-75
2023/06/22 03:12:27;;;;;;;1999.90;999.90;;;18.70;99.90;;;;;;5073836;28;20055;-76
2023/06/22 03:14:53;;;;;;;1999.90;999.90;;;18.70;99.90;;;;;;5074992;28;20025;-76
2023/06/22 03:17:18;;;;;;;1999.90;999.90;;;18.60;99.90;;;;;;5077145;28;20470;-76
2023/06/22 03:19:43;;;;;;;1999.90;999.90;;;18.60;99.90;;;;;;5077156;28;20033;-76
2023/06/22 03:22:09;;;;;;;1999.90;999.90;;;18.60;99.90;;;;;;5077179;28;20035;-75
2023/06/22 03:24:37;;;;;;;1999.90;999.90;;;18.60;99.90;;;;;;5077642;28;20033;-76
2023/06/22 03:27:04;;;;;;;1999.90;999.90;;;18.50;99.90;;;;;;5077075;28;20040;-75
2023/06/22 03:29:30;;;;;;;1999.90;999.90;;;18.50;99.90;;;;;;5077256;28;20032;-75
2023/06/22 03:31:55;;;;;;;1999.90;999.90;;;18.50;99.90;;;;;;5076698;28;20490;-75
2023/06/22 03:34:21;;;;;;;1999.90;999.90;;;18.50;99.90;;;;;;5077293;28;20036;-76
2023/06/22 03:36:46;;;;;;;1999.90;999.90;;;18.50;99.90;;;;;;5076901;28;20033;-76
2023/06/22 03:39:12;;;;;;;1999.90;999.90;;;18.40;99.90;;;;;;5077031;28;20086;-76
2023/06/22 03:41:38;;;;;;;1999.90;999.90;;;18.40;99.90;;;;;;5076865;28;20029;-75
2023/06/22 03:44:04;;;;;;;1999.90;999.90;;;18.30;99.90;;;;;;5077282;28;20060;-75
2023/06/22 03:46:30;;;;;;;1999.90;999.90;;;18.40;99.90;;;;;;5076779;28;20044;-75
2023/06/22 03:48:55;;;;;;;1999.90;999.90;;;18.40;99.90;;;;;;5076880;28;20154;-75
2023/06/22 03:51:21;;;;;;;1999.90;999.90;;;18.40;99.90;;;;;;5075200;28;20475;-75
2023/06/22 03:53:47;;;;;;;1999.90;999.90;;;18.30;99.90;;;;;;5076912;28;20033;-75
2023/06/22 03:56:19;;;;;;;1999.90;999.90;;;18.40;99.90;;;;;;5076951;28;20037;-75
2023/06/22 03:58:45;;;;;;;1999.90;999.90;;;18.40;99.90;;;;;;5077006;28;20029;-76
2023/06/22 04:01:11;;;;;;;1999.90;999.90;;;18.40;99.90;;;;;;5074852;28;20033;-75
2023/06/22 04:03:37;;;;;;;1999.90;999.90;;;18.50;99.90;;;;;;5076875;28;20111;-76
2023/06/22 04:06:03;;;;;;;1999.90;999.90;;;18.50;99.90;;;;;;5076518;28;20063;-76
2023/06/22 04:08:29;;;;;;;1999.90;999.90;;;18.50;99.90;;;;;;5076066;28;20033;-75
2023/06/22 04:10:54;;;;;;;1999.90;999.90;;;18.50;99.90;;;;;;5076403;28;20037;-75
2023/06/22 04:13:20;;;;;;;1999.90;999.90;;;18.40;99.90;;;;;;5075083;28;20029;-76
2023/06/22 04:15:46;;;;;;;1999.90;999.90;;;18.40;99.90;;;;;;5074963;28;20037;-75
2023/06/22 04:18:11;;;;;;;1999.90;999.90;;;18.50;99.90;;;;;;5076557;28;20033;-75
2023/06/22 04:20:37;;;;;;;1999.90;999.90;;;18.50;99.90;;;;;;5076498;28;20041;-75
2023/06/22 04:23:02;;;;;;;1999.90;999.90;;;18.60;99.90;;;;;;5076247;28;20036;-75
2023/06/22 04:25:28;;;;;;;1999.90;999.90;;;18.60;99.90;;;;;;5076548;28;20044;-75
2023/06/22 04:27:53;;;;;;;1999.90;999.90;;;18.60;99.90;;;;;;5076183;28;20036;-76
2023/06/22 04:30:19;;;;;;;1999.90;999.90;;;18.70;99.90;;;;;;5074595;28;20033;-76
2023/06/22 04:32:44;;;;;;;1999.90;999.90;;;18.70;99.90;;;;;;5076130;28;20112;-76
2023/06/22 04:35:10;;;;;;;1999.90;999.90;;;18.80;99.90;;;;;;5076178;28;20041;-76
2023/06/22 04:37:37;;;;;;;1999.90;999.90;;;18.80;99.90;;;;;;5074492;28;20063;-75
2023/06/22 04:40:05;;;;;;;1999.90;999.90;;;19.00;99.90;;;;;;5076384;28;20033;-76
2023/06/22 04:42:31;;;;;;;1999.90;999.90;;;18.90;99.90;;;;;;5073904;28;20056;-75
2023/06/22 04:44:57;;;;;;;1999.90;999.90;;;19.00;99.90;;;;;;5075950;28;20029;-75
2023/06/22 04:47:23;;;;;;;1999.90;999.90;;;19.10;99.90;;;;;;5075728;28;20517;-75
2023/06/22 04:49:48;;;;;;;1999.90;999.90;;;19.20;99.90;;;;;;5074562;28;20060;-75
2023/06/22 04:52:17;;;;;;;1999.90;999.90;;;19.30;99.90;;;;;;5075610;28;20075;-75
2023/06/22 04:54:47;;;;;;;1999.90;999.90;;;19.30;99.90;;;;;;5075904;28;20025;-75
2023/06/22 04:57:13;;;;;;;1999.90;999.90;;;19.40;99.90;;;;;;5075689;28;20128;-76
2023/06/22 04:59:41;;;;;;;1999.90;999.90;;;19.50;99.90;;;;;;5076048;28;20498;-76
2023/06/22 05:02:07;;;;;;;1999.90;999.90;;;19.60;99.90;;;;;;5075377;28;20513;-75
2023/06/22 05:04:35;;;;;;;1999.90;999.90;;;19.70;99.90;;;;;;5075579;28;20037;-75
2023/06/22 05:07:01;;;;;;;1999.90;999.90;;;19.70;99.90;;;;;;5073737;28;20040;-76
2023/06/22 05:09:27;;;;;;;1999.90;999.90;;;19.90;99.90;;;;;;5075810;28;20463;-76
2023/06/22 05:11:52;;;;;;;1999.90;999.90;;;20.00;99.90;;;;;;5075465;28;20128;-76
2023/06/22 05:14:19;;;;;;;1999.90;999.90;;;20.10;99.90;;;;;;5075481;28;20066;-76
2023/06/22 05:16:45;;;;;;;1999.90;999.90;;;20.30;99.90;;;;;;5075553;28;20037;-75
2023/06/22 05:19:11;;;;;;;1999.90;999.90;;;20.30;99.90;;;;;;5075714;28;20040;-76
2023/06/22 05:21:37;;;;;;;1999.90;999.90;;;20.50;99.90;;;;;;5073808;28;20120;-76
2023/06/22 05:24:03;;;;;;;1999.90;999.90;;;20.60;99.90;;;;;;5075494;28;20115;-76
2023/06/22 05:26:33;;;;;;;1999.90;999.90;;;20.70;99.90;;;;;;5075361;28;20037;-76
2023/06/22 05:29:00;;;;;;;1999.90;999.90;;;20.70;99.90;;;;;;5075179;28;20041;-76
2023/06/22 05:31:26;;;;;;;1999.90;999.90;;;20.80;99.90;;;;;;5075011;28;20475;-76
2023/06/22 05:33:54;;;;;;;1999.90;999.90;;;21.00;99.90;;;;;;5075523;28;20045;-76
2023/06/22 05:36:21;;;;;;;1999.90;999.90;;;21.20;99.90;;;;;;5075152;28;20087;-76
2023/06/22 05:38:47;;;;;;;1999.90;999.90;;;21.20;99.90;;;;;;5075041;28;20099;-76
2023/06/22 05:41:12;;;;;;;1999.90;999.90;;;21.30;99.90;;;;;;5073525;28;20037;-76
2023/06/22 05:43:38;;;;;;;1999.90;999.90;;;21.40;99.90;;;;;;5075093;28;20400;-76
2023/06/22 05:46:04;;;;;;;1999.90;999.90;;;21.60;99.90;;;;;;5075190;28;20037;-76
2023/06/22 05:48:30;;;;;;;1999.90;999.90;;;21.80;99.90;;;;;;5074928;28;20028;-76
2023/06/22 05:50:56;;;;;;;1999.90;999.90;;;22.00;99.90;;;;;;5074779;28;20037;-76
2023/06/22 05:53:21;;;;;;;1999.90;999.90;;;22.10;99.90;;;;;;5075072;28;20033;-76
2023/06/22 05:55:47;;;;;;;1999.90;999.90;;;22.20;99.90;;;;;;5074806;28;20036;-76
2023/06/22 05:58:15;;;;;;;1999.90;999.90;;;22.30;99.90;;;;;;5075075;28;20395;-76
2023/06/22 06:00:41;;;;;;;1999.90;999.90;;;22.40;99.90;;;;;;5075015;28;20471;-76
2023/06/22 06:03:08;;;;;;;1999.90;999.90;;;22.60;99.90;;;;;;5074708;28;20032;-76
2023/06/22 06:05:35;;;;;;;1999.90;999.90;;;22.60;99.90;;;;;;5073152;28;20115;-76
2023/06/22 06:08:01;;;;;;;1999.90;999.90;;;22.70;99.90;;;;;;5074740;28;20044;-76
2023/06/22 06:10:29;;;;;;;1999.90;999.90;;;22.80;99.90;;;;;;5074312;28;20406;-76
2023/06/22 06:12:55;;;;;;;1999.90;999.90;;;22.90;99.90;;;;;;5074293;28;20033;-77
2023/06/22 06:15:21;;;;;;;1999.90;999.90;;;23.00;99.90;;;;;;5073013;28;20029;-76
2023/06/22 06:17:53;;;;;;;1999.90;999.90;;;23.10;99.90;;;;;;5072948;28;20530;-76
2023/06/22 06:20:23;;;;;;;1999.90;999.90;;;23.20;99.90;;;;;;5074679;28;20029;-76
2023/06/22 06:22:49;;;;;;;1999.90;999.90;;;23.30;99.90;;;;;;5073738;28;20461;-76
2023/06/22 06:25:16;;;;;;;1999.90;999.90;;;23.50;99.90;;;;;;5073103;28;20379;-76
2023/06/22 06:27:43;;;;;;;1999.90;999.90;;;23.50;99.90;;;;;;5074291;28;20040;-76
2023/06/22 06:30:10;;;;;;;1999.90;999.90;;;23.60;99.90;;;;;;5074594;28;20368;-76
2023/06/22 06:32:36;;;;;;;1999.90;999.90;;;23.70;99.90;;;;;;5073990;28;20045;-76
2023/06/22 06:35:01;;;;;;;1999.90;999.90;;;23.80;99.90;;;;;;5074212;28;20104;-76
2023/06/22 06:37:27;;;;;;;1999.90;999.90;;;23.80;99.90;;;;;;5074071;28;20502;-76
2023/06/22 06:39:53;;;;;;;1999.90;999.90;;;23.90;99.90;;;;;;5074364;28;20509;-76
2023/06/22 06:42:19;;;;;;;1999.90;999.90;;;24.10;99.90;;;;;;5073973;28;20033;-76
2023/06/22 06:44:45;;;;;;;1999.90;999.90;;;24.20;99.90;;;;;;5073333;28;20055;-76
2023/06/22 06:47:11;;;;;;;1999.90;999.90;;;24.10;99.90;;;;;;5073261;28;20040;-77
2023/06/22 06:49:41;;;;;;;1999.90;999.90;;;24.20;99.90;;;;;;5077489;28;20139;-77
2023/06/22 06:52:07;;;;;;;1999.90;999.90;;;24.30;99.90;;;;;;5078093;28;20037;-77
2023/06/22 06:54:33;;;;;;;1999.90;999.90;;;24.30;99.90;;;;;;5079203;28;20033;-77
2023/06/22 06:56:59;;;;;;;1999.90;999.90;;;24.50;99.90;;;;;;5077518;28;20090;-77
2023/06/22 06:59:24;;;;;;;1999.90;999.90;;;24.50;99.90;;;;;;5078878;28;20041;-76
2023/06/22 07:01:50;;;;;;;1999.90;999.90;;;24.60;99.90;;;;;;5078877;28;20036;-76
2023/06/22 07:04:15;;;;;;;1999.90;999.90;;;24.80;99.90;;;;;;5081299;28;20080;-76
2023/06/22 07:06:41;;;;;;;1999.90;999.90;;;24.80;99.90;;;;;;5081966;28;20029;-76
2023/06/22 07:09:08;;;;;;;1999.90;999.90;;;25.00;99.90;;;;;;5080800;28;20036;-77
2023/06/22 07:11:35;;;;;;;1999.90;999.90;;;25.30;99.90;;;;;;5079701;28;20040;-77
2023/06/22 07:14:01;;;;;;;1999.90;999.90;;;25.20;99.90;;;;;;5081282;28;20033;-77
2023/06/22 07:16:27;;;;;;;1999.90;999.90;;;25.20;99.90;;;;;;5082179;28;20212;-77
2023/06/22 07:18:53;;;;;;;1999.90;999.90;;;25.30;99.90;;;;;;5079783;28;20036;-76
2023/06/22 07:21:18;;;;;;;1999.90;999.90;;;25.70;99.90;;;;;;5078869;28;20033;-76
2023/06/22 07:23:44;;;;;;;1999.90;999.90;;;25.60;99.90;;;;;;5079775;28;20033;-76
2023/06/22 07:26:09;;;;;;;1999.90;999.90;;;25.80;99.90;;;;;;5080327;28;20103;-76
2023/06/22 07:28:37;;;;;;;1999.90;999.90;;;25.90;99.90;;;;;;5080171;28;20628;-77
2023/06/22 07:31:04;;;;;;;1999.90;999.90;;;26.00;99.90;;;;;;5079188;28;20523;-76
2023/06/22 07:33:29;;;;;;;1999.90;999.90;;;26.00;99.90;;;;;;5079316;28;20037;-76
2023/06/22 07:35:55;;;;;;;1999.90;999.90;;;26.10;99.90;;;;;;5080258;28;20037;-76
2023/06/22 07:38:20;;;;;;;1999.90;999.90;;;26.20;99.90;;;;;;5079036;28;20036;-77
2023/06/22 07:40:46;;;;;;;1999.90;999.90;;;26.40;99.90;;;;;;5079408;28;20514;-76
2023/06/22 07:43:12;;;;;;;1999.90;999.90;;;26.40;99.90;;;;;;5078897;28;20490;-77
2023/06/22 07:45:39;;;;;;;1999.90;999.90;;;26.70;99.90;;;;;;5079121;28;20028;-76
2023/06/22 07:48:05;;;;;;;1999.90;999.90;;;26.70;99.90;;;;;;5078756;28;20032;-77
2023/06/22 07:50:31;;;;;;;1999.90;999.90;;;26.70;99.90;;;;;;5078522;28;20041;-77
2023/06/22 07:52:56;;;;;;;1999.90;999.90;;;27.00;99.90;;;;;;5078757;28;20040;-77
2023/06/22 07:55:22;;;;;;;1999.90;999.90;;;27.00;99.90;;;;;;5078581;28;20055;-77
2023/06/22 07:57:51;;;;;;;1999.90;999.90;;;27.10;99.90;;;;;;5077938;28;20145;-76
2023/06/22 08:00:18;;;;;;;1999.90;999.90;;;27.20;99.90;;;;;;5077311;28;20039;-76
2023/06/22 08:02:46;;;;;;;1999.90;999.90;;;27.60;99.90;;;;;;5077180;28;20033;-77
2023/06/22 08:05:13;;;;;;;1999.90;999.90;;;27.70;99.70;;;;;;5077763;28;20830;-77
2023/06/22 08:07:39;;;;;;;1999.90;999.90;;;27.60;99.80;;;;;;5077972;28;20056;-77
2023/06/22 08:10:06;;;;;;;1999.90;999.90;;;27.60;99.20;;;;;;5079759;28;20106;-77
2023/06/22 08:12:31;;;;;;;1999.90;999.90;;;27.30;98.70;;;;;;5079356;28;20526;-76
2023/06/22 08:14:57;;;;;;;1999.90;999.90;;;27.50;99.30;;;;;;5079252;28;20098;-77
2023/06/22 08:17:24;;;;;;;1999.90;999.90;;;27.80;99.70;;;;;;5078190;28;20108;-77
2023/06/22 08:19:50;;;;;;;1999.90;999.90;;;28.20;99.10;;;;;;5077349;28;20021;-77
2023/06/22 08:22:16;;;;;;;1999.90;999.90;;;28.10;96.90;;;;;;5079411;28;20044;-76
2023/06/22 08:24:42;;;;;;;1999.90;999.90;;;28.20;97.60;;;;;;5078247;28;20076;-77
2023/06/22 08:27:09;;;;;;;1999.90;999.90;;;28.30;96.40;;;;;;5077990;28;20108;-77
2023/06/22 08:29:35;;;;;;;1999.90;999.90;;;28.60;96.40;;;;;;5078683;28;20032;-76
2023/06/22 08:32:01;;;;;;;1999.90;999.90;;;28.80;96.60;;;;;;5078438;28;20040;-77
2023/06/22 08:34:27;;;;;;;1999.90;999.90;;;29.00;95.90;;;;;;5079031;28;20032;-76
2023/06/22 08:36:53;;;;;;;1999.90;999.90;;;29.20;95.50;;;;;;5076848;28;20052;-77
2023/06/22 08:39:21;;;;;;;1999.90;999.90;;;29.60;94.80;;;;;;5078661;28;20432;-77
2023/06/22 08:41:48;;;;;;;1999.90;999.90;;;29.70;94.50;;;;;;5076516;28;20083;-76
2023/06/22 08:44:13;;;;;;;1999.90;999.90;;;29.40;93.70;;;;;;5076616;28;20095;-76
2023/06/22 08:46:40;;;;;;;1999.90;999.90;;;29.10;93.80;;;;;;5076579;28;20549;-76
2023/06/22 08:49:06;;;;;;;1999.90;999.90;;;28.90;94.00;;;;;;5077656;28;20033;-77
2023/06/22 08:51:32;;;;;;;1999.90;999.90;;;29.40;93.90;;;;;;5076569;28;20033;-77
2023/06/22 08:53:57;;;;;;;1999.90;999.90;;;29.20;93.10;;;;;;5075722;28;20036;-76
2023/06/22 08:56:23;;;;;;;1999.90;999.90;;;29.60;92.60;;;;;;5075420;28;20036;-76
2023/06/22 08:58:48;;;;;;;1999.90;999.90;;;29.50;92.50;;;;;;5075879;28;20077;-77
2023/06/22 09:01:15;;;;;;;1999.90;999.90;;;29.70;93.00;;;;;;5076488;28;20181;-77
2023/06/22 09:03:41;;;;;;;1999.90;999.90;;;29.80;92.10;;;;;;5076534;28;20032;-76
2023/06/22 09:06:09;;;;;;;1999.90;999.90;;;30.00;92.70;;;;;;5074863;28;20386;-76
2023/06/22 09:08:34;;;;;;;1999.90;999.90;;;30.30;91.50;;;;;;5077226;28;20506;-77
2023/06/22 09:11:00;;;;;;;1999.90;999.90;;;30.20;92.20;;;;;;5075148;28;20095;-77
2023/06/22 09:13:25;;;;;;;1999.90;999.90;;;30.80;91.60;;;;;;5077370;28;20394;-77
2023/06/22 09:15:52;;;;;;;1999.90;999.90;;;31.30;90.30;;;;;;5077509;28;20041;-76
2023/06/22 09:18:17;;;;;;;1999.90;999.90;;;31.50;88.70;;;;;;5077323;28;20142;-76
2023/06/22 09:20:44;;;;;;;1999.90;999.90;;;31.90;87.80;;;;;;5076733;28;20557;-77
2023/06/22 09:23:10;;;;;;;1999.90;999.90;;;32.10;86.10;;;;;;5074760;28;20122;-77
2023/06/22 09:25:35;;;;;;;1999.90;999.90;;;32.10;84.90;;;;;;5076843;28;20036;-75
2023/06/22 09:28:01;;;;;;;1999.90;999.90;;;31.80;84.90;;;;;;5075432;28;20037;-76
2023/06/22 09:30:26;;;;;;;1999.90;999.90;;;31.60;87.70;;;;;;5074993;28;20390;-76
2023/06/22 09:32:52;;;;;;;1999.90;999.90;;;31.10;86.70;;;;;;5074975;28;20585;-76
2023/06/22 09:35:17;;;;;;;1999.90;999.90;;;30.90;88.90;;;;;;5076438;28;20041;-77
2023/06/22 09:37:43;;;;;;;1999.90;999.90;;;30.60;88.00;;;;;;5076503;28;20116;-76
2023/06/22 09:40:10;;;;;;;1999.90;999.90;;;30.50;90.90;;;;;;5075244;28;20021;-76
2023/06/22 09:42:36;;;;;;;1999.90;999.90;;;30.50;90.00;;;;;;5075680;28;20087;-77
2023/06/22 09:45:02;;;;;;;1999.90;999.90;;;30.30;89.80;;;;;;5076961;28;20083;-76
2023/06/22 09:47:29;;;;;;;1999.90;999.90;;;30.40;90.40;;;;;;5076212;28;20418;-77
2023/06/22 09:49:55;;;;;;;1999.90;999.90;;;30.50;89.20;;;;;;5074905;28;20110;-76
2023/06/22 09:52:21;;;;;;;1999.90;999.90;;;30.60;88.50;;;;;;5075136;28;20043;-76
2023/06/22 09:54:47;;;;;;;1999.90;999.90;;;30.80;89.80;;;;;;5076739;28;20029;-76
2023/06/22 09:57:12;;;;;;;1999.90;999.90;;;31.00;89.60;;;;;;5074237;28;20049;-76
2023/06/22 09:59:39;;;;;;;1999.90;999.90;;;30.70;88.80;;;;;;5076070;28;20033;-76
2023/06/22 10:02:06;;;;;;;1999.90;999.90;;;30.50;90.00;;;;;;5075841;28;20774;-76
2023/06/22 10:04:31;;;;;;;1999.90;999.90;;;30.40;90.50;;;;;;5073989;28;20529;-76
2023/06/22 10:06:57;;;;;;;1999.90;999.90;;;30.50;89.00;;;;;;5075121;28;20037;-76
2023/06/22 10:09:22;;;;;;;1999.90;999.90;;;30.70;89.30;;;;;;5075325;28;20114;-76
2023/06/22 10:11:48;;;;;;;1999.90;999.90;;;31.40;88.50;;;;;;5075183;28;20037;-76
2023/06/22 10:14:13;;;;;;;1999.90;999.90;;;31.90;86.50;;;;;;5076023;28;20044;-77
2023/06/22 10:16:40;;;;;;;1999.90;999.90;;;32.20;84.50;;;;;;5075783;28;20040;-76
2023/06/22 10:19:06;;;;;;;1999.90;999.90;;;32.30;87.00;;;;;;5075864;28;20029;-77
2023/06/22 10:21:32;;;;;;;1999.90;999.90;;;31.80;83.00;;;;;;5075931;28;20521;-76
2023/06/22 10:23:59;;;;;;;1999.90;999.90;;;32.00;84.90;;;;;;5075159;28;20521;-76
2023/06/22 10:26:25;;;;;;;1999.90;999.90;;;32.50;84.70;;;;;;5075248;28;20517;-76
2023/06/22 10:28:51;;;;;;;1999.90;999.90;;;32.40;82.10;;;;;;5076011;28;20029;-76
2023/06/22 10:31:16;;;;;;;1999.90;999.90;;;32.90;82.30;;;;;;5075699;28;20087;-76
2023/06/22 10:33:43;;;;;;;1999.90;999.90;;;32.90;82.70;;;;;;5075778;28;20479;-76
2023/06/22 10:36:10;;;;;;;1999.90;999.90;;;32.60;80.60;;;;;;5074543;28;20037;-76
2023/06/22 10:38:36;;;;;;;1999.90;999.90;;;32.50;80.50;;;;;;5075665;28;20029;-77
2023/06/22 10:41:02;;;;;;;1999.90;999.90;;;32.50;82.20;;;;;;5074794;28;20036;-76
2023/06/22 10:43:27;;;;;;;1999.90;999.90;;;32.50;83.20;;;;;;5075678;28;20037;-76
2023/06/22 10:45:53;;;;;;;1999.90;999.90;;;32.90;81.50;;;;;;5075545;28;20495;-76
2023/06/22 10:48:19;;;;;;;1999.90;999.90;;;33.00;83.50;;;;;;5075370;28;20025;-76
2023/06/22 10:50:44;;;;;;;1999.90;999.90;;;33.50;79.30;;;;;;5073909;28;20033;-76
2023/06/22 10:53:10;;;;;;;1999.90;999.90;;;33.40;78.30;;;;;;5075508;28;20047;-76
2023/06/22 10:55:35;;;;;;;1999.90;999.90;;;33.10;81.10;;;;;;5075374;28;20029;-76
2023/06/22 10:58:01;;;;;;;1999.90;999.90;;;33.50;78.30;;;;;;5075255;28;20168;-76
2023/06/22 11:00:26;;;;;;;1999.90;999.90;;;34.00;79.40;;;;;;5074914;28;20092;-76
2023/06/22 11:02:52;;;;;;;1999.90;999.90;;;34.20;80.00;;;;;;5074891;28;20037;-76
2023/06/22 11:05:17;;;;;;;1999.90;999.90;;;34.00;79.60;;;;;;5073650;28;20040;-76
2023/06/22 11:07:44;;;;;;;1999.90;999.90;;;34.10;76.40;;;;;;5074696;28;20048;-76
2023/06/22 11:10:10;;;;;;;1999.90;999.90;;;34.30;77.80;;;;;;5074870;28;20108;-76
2023/06/22 11:12:35;;;;;;;1999.90;999.90;;;34.10;77.40;;;;;;5074206;28;20120;-76
2023/06/22 11:15:01;;;;;;;1999.90;999.90;;;33.50;78.10;;;;;;5074695;28;20044;-76
2023/06/22 11:17:27;;;;;;;1999.90;999.90;;;33.50;76.80;;;;;;5072651;28;20063;-76
2023/06/22 11:19:52;;;;;;;1999.90;999.90;;;33.40;78.60;;;;;;5074002;28;20056;-76
2023/06/22 11:22:18;;;;;;;1999.90;999.90;;;33.00;78.10;;;;;;5072519;28;20478;-76
2023/06/22 11:24:43;;;;;;;1999.90;999.90;;;33.20;78.60;;;;;;5072588;28;20091;-76
2023/06/22 11:27:09;;;;;;;1999.90;999.90;;;33.20;79.30;;;;;;5074863;28;20029;-77
2023/06/22 11:29:35;;;;;;;1999.90;999.90;;;33.30;78.40;;;;;;5074944;28;20365;-76
2023/06/22 11:32:01;;;;;;;1999.90;999.90;;;33.70;76.40;;;;;;5073296;28;20072;-76
2023/06/22 11:34:27;;;;;;;1999.90;999.90;;;34.30;77.40;;;;;;5075199;28;20582;-76
2023/06/22 11:36:53;;;;;;;1999.90;999.90;;;35.10;74.40;;;;;;5078004;28;20045;-76
2023/06/22 11:39:18;;;;;;;1999.90;999.90;;;35.10;72.60;;;;;;5078030;28;20036;-76
2023/06/22 11:41:44;;;;;;;1999.90;999.90;;;34.90;73.10;;;;;;5077245;28;20445;-76
2023/06/22 11:44:09;;;;;;;1999.90;999.90;;;34.60;73.80;;;;;;5077627;28;20469;-76
2023/06/22 11:46:35;;;;;;;1999.90;999.90;;;34.40;75.40;;;;;;5077382;28;20038;-77
2023/06/22 11:49:01;;;;;;;1999.90;999.90;;;33.80;75.20;;;;;;5077825;28;20029;-76
2023/06/22 11:51:27;;;;;;;1999.90;999.90;;;33.90;76.10;;;;;;5076056;28;20494;-76
2023/06/22 11:53:53;;;;;;;1999.90;999.90;;;34.20;75.30;;;;;;5077756;28;20037;-76
2023/06/22 11:56:19;;;;;;;1999.90;999.90;;;34.30;79.30;;;;;;5077801;28;20037;-77